sensor_id;sensor_type;location;lat;lon;timestamp;P1;durP1;ratioP1;P2;durP2;ratioP2
49578;SDS011;35483;50.828;3.228;2023-11-21T00:01:59;12.00;;;7.85;;
49578;SDS011;35483;50.828;3.228;2023-11-21T00:04:26;11.73;;;8.40;;
49578;SDS011;35483;50.828;3.228;2023-11-21T00:09:21;13.27;;;8.27;;
49578;SDS011;35483;50.828;3.228;2023-11-21T00:11:49;15.73;;;8.45;;
49578;SDS011;35483;50.828;3.228;2023-11-21T00:14:14;15.75;;;8.93;;
49578;SDS011;35483;50.828;3.228;2023-11-21T00:16:43;11.55;;;8.82;;
49578;SDS011;35483;50.828;3.228;2023-11-21T00:21:37;14.55;;;8.63;;
49578;SDS011;35483;50.828;3.228;2023-11-21T00:24:03;14.70;;;8.88;;
49578;SDS011;35483;50.828;3.228;2023-11-21T00:26:29;13.27;;;8.85;;
49578;SDS011;35483;50.828;3.228;2023-11-21T00:29:00;12.52;;;9.02;;
49578;SDS011;35483;50.828;3.228;2023-11-21T00:31:26;12.35;;;9.15;;
49578;SDS011;35483;50.828;3.228;2023-11-21T00:33:52;16.23;;;8.88;;
49578;SDS011;35483;50.828;3.228;2023-11-21T00:36:20;16.08;;;8.90;;
49578;SDS011;35483;50.828;3.228;2023-11-21T00:38:46;13.00;;;9.00;;
49578;SDS011;35483;50.828;3.228;2023-11-21T00:41:14;11.25;;;8.77;;
49578;SDS011;35483;50.828;3.228;2023-11-21T00:43:40;13.88;;;9.07;;
49578;SDS011;35483;50.828;3.228;2023-11-21T00:46:06;11.82;;;8.27;;
49578;SDS011;35483;50.828;3.228;2023-11-21T00:48:33;13.48;;;9.05;;
49578;SDS011;35483;50.828;3.228;2023-11-21T00:50:58;15.98;;;8.77;;
49578;SDS011;35483;50.828;3.228;2023-11-21T00:53:26;11.75;;;8.95;;
49578;SDS011;35483;50.828;3.228;2023-11-21T00:55:53;11.85;;;8.30;;
49578;SDS011;35483;50.828;3.228;2023-11-21T00:58:22;11.38;;;7.90;;
49578;SDS011;35483;50.828;3.228;2023-11-21T01:00:49;13.85;;;8.10;;
49578;SDS011;35483;50.828;3.228;2023-11-21T01:03:15;12.25;;;8.43;;
49578;SDS011;35483;50.828;3.228;2023-11-21T01:05:44;13.07;;;8.85;;
49578;SDS011;35483;50.828;3.228;2023-11-21T01:08:13;15.30;;;7.90;;
49578;SDS011;35483;50.828;3.228;2023-11-21T01:10:39;14.13;;;8.20;;
49578;SDS011;35483;50.828;3.228;2023-11-21T01:13:05;13.23;;;8.73;;
49578;SDS011;35483;50.828;3.228;2023-11-21T01:15:32;13.45;;;8.45;;
49578;SDS011;35483;50.828;3.228;2023-11-21T01:17:59;15.32;;;8.23;;
49578;SDS011;35483;50.828;3.228;2023-11-21T01:20:26;14.15;;;8.95;;
49578;SDS011;35483;50.828;3.228;2023-11-21T01:22:55;11.13;;;8.77;;
49578;SDS011;35483;50.828;3.228;2023-11-21T01:25:20;13.02;;;8.50;;
49578;SDS011;35483;50.828;3.228;2023-11-21T01:27:46;14.95;;;8.77;;
49578;SDS011;35483;50.828;3.228;2023-11-21T01:30:14;15.23;;;9.15;;
49578;SDS011;35483;50.828;3.228;2023-11-21T01:32:44;14.88;;;9.13;;
49578;SDS011;35483;50.828;3.228;2023-11-21T01:37:41;16.65;;;9.30;;
49578;SDS011;35483;50.828;3.228;2023-11-21T01:40:06;14.13;;;9.10;;
49578;SDS011;35483;50.828;3.228;2023-11-21T01:42:35;14.32;;;9.27;;
49578;SDS011;35483;50.828;3.228;2023-11-21T01:45:02;14.05;;;9.25;;
49578;SDS011;35483;50.828;3.228;2023-11-21T01:47:32;13.82;;;9.15;;
49578;SDS011;35483;50.828;3.228;2023-11-21T01:49:58;16.17;;;8.77;;
49578;SDS011;35483;50.828;3.228;2023-11-21T01:52:26;11.55;;;8.35;;
49578;SDS011;35483;50.828;3.228;2023-11-21T01:54:52;13.65;;;8.63;;
49578;SDS011;35483;50.828;3.228;2023-11-21T01:59:48;12.23;;;8.23;;
49578;SDS011;35483;50.828;3.228;2023-11-21T02:02:15;13.75;;;7.68;;
49578;SDS011;35483;50.828;3.228;2023-11-21T02:04:43;14.02;;;8.32;;
49578;SDS011;35483;50.828;3.228;2023-11-21T02:07:10;14.00;;;8.88;;
49578;SDS011;35483;50.828;3.228;2023-11-21T02:09:37;12.90;;;8.20;;
49578;SDS011;35483;50.828;3.228;2023-11-21T02:12:05;16.70;;;8.20;;
49578;SDS011;35483;50.828;3.228;2023-11-21T02:14:32;13.43;;;8.48;;
49578;SDS011;35483;50.828;3.228;2023-11-21T02:17:00;15.32;;;8.55;;
49578;SDS011;35483;50.828;3.228;2023-11-21T02:19:26;14.50;;;8.88;;
49578;SDS011;35483;50.828;3.228;2023-11-21T02:21:53;12.77;;;8.60;;
49578;SDS011;35483;50.828;3.228;2023-11-21T02:24:21;15.82;;;8.70;;
49578;SDS011;35483;50.828;3.228;2023-11-21T02:26:48;16.10;;;9.00;;
49578;SDS011;35483;50.828;3.228;2023-11-21T02:29:18;14.43;;;9.32;;
49578;SDS011;35483;50.828;3.228;2023-11-21T02:36:51;13.45;;;9.05;;
49578;SDS011;35483;50.828;3.228;2023-11-21T02:39:19;14.57;;;9.18;;
49578;SDS011;35483;50.828;3.228;2023-11-21T02:41:47;16.42;;;9.38;;
49578;SDS011;35483;50.828;3.228;2023-11-21T02:44:13;19.27;;;10.15;;
49578;SDS011;35483;50.828;3.228;2023-11-21T02:46:40;14.73;;;9.50;;
49578;SDS011;35483;50.828;3.228;2023-11-21T02:49:08;17.02;;;10.00;;
49578;SDS011;35483;50.828;3.228;2023-11-21T02:51:39;18.65;;;9.00;;
49578;SDS011;35483;50.828;3.228;2023-11-21T02:54:06;14.93;;;9.48;;
49578;SDS011;35483;50.828;3.228;2023-11-21T02:56:34;16.08;;;10.35;;
49578;SDS011;35483;50.828;3.228;2023-11-21T02:59:00;14.80;;;9.48;;
49578;SDS011;35483;50.828;3.228;2023-11-21T03:01:27;14.63;;;9.88;;
49578;SDS011;35483;50.828;3.228;2023-11-21T03:03:56;13.93;;;9.60;;
49578;SDS011;35483;50.828;3.228;2023-11-21T03:06:24;18.27;;;9.07;;
49578;SDS011;35483;50.828;3.228;2023-11-21T03:08:51;15.18;;;9.35;;
49578;SDS011;35483;50.828;3.228;2023-11-21T03:11:16;14.00;;;8.82;;
49578;SDS011;35483;50.828;3.228;2023-11-21T03:13:43;12.18;;;8.30;;
49578;SDS011;35483;50.828;3.228;2023-11-21T03:16:10;13.45;;;9.02;;
49578;SDS011;35483;50.828;3.228;2023-11-21T03:18:39;13.80;;;8.23;;
49578;SDS011;35483;50.828;3.228;2023-11-21T03:21:05;13.60;;;8.00;;
49578;SDS011;35483;50.828;3.228;2023-11-21T03:23:34;13.18;;;9.07;;
49578;SDS011;35483;50.828;3.228;2023-11-21T03:26:00;14.93;;;8.45;;
49578;SDS011;35483;50.828;3.228;2023-11-21T03:28:26;15.13;;;8.77;;
49578;SDS011;35483;50.828;3.228;2023-11-21T03:30:52;11.85;;;8.25;;
49578;SDS011;35483;50.828;3.228;2023-11-21T03:33:18;14.48;;;9.27;;
49578;SDS011;35483;50.828;3.228;2023-11-21T03:35:45;14.70;;;9.18;;
49578;SDS011;35483;50.828;3.228;2023-11-21T03:40:46;15.88;;;9.50;;
49578;SDS011;35483;50.828;3.228;2023-11-21T03:43:13;13.60;;;9.45;;
49578;SDS011;35483;50.828;3.228;2023-11-21T03:45:39;14.57;;;8.85;;
49578;SDS011;35483;50.828;3.228;2023-11-21T03:48:08;12.90;;;8.63;;
49578;SDS011;35483;50.828;3.228;2023-11-21T03:50:35;11.73;;;8.40;;
49578;SDS011;35483;50.828;3.228;2023-11-21T03:53:01;11.82;;;8.00;;
49578;SDS011;35483;50.828;3.228;2023-11-21T03:55:27;14.25;;;8.88;;
49578;SDS011;35483;50.828;3.228;2023-11-21T04:00:24;13.85;;;9.27;;
49578;SDS011;35483;50.828;3.228;2023-11-21T04:02:53;15.23;;;9.90;;
49578;SDS011;35483;50.828;3.228;2023-11-21T04:05:19;14.07;;;9.75;;
49578;SDS011;35483;50.828;3.228;2023-11-21T04:07:47;13.95;;;9.70;;
49578;SDS011;35483;50.828;3.228;2023-11-21T04:10:16;12.70;;;9.55;;
49578;SDS011;35483;50.828;3.228;2023-11-21T04:12:42;18.60;;;10.55;;
49578;SDS011;35483;50.828;3.228;2023-11-21T04:15:08;14.82;;;10.02;;
49578;SDS011;35483;50.828;3.228;2023-11-21T04:17:36;14.38;;;10.23;;
49578;SDS011;35483;50.828;3.228;2023-11-21T04:20:04;18.52;;;10.40;;
49578;SDS011;35483;50.828;3.228;2023-11-21T04:22:36;14.73;;;10.15;;
49578;SDS011;35483;50.828;3.228;2023-11-21T04:25:09;18.38;;;10.55;;
49578;SDS011;35483;50.828;3.228;2023-11-21T04:27:41;20.70;;;11.07;;
49578;SDS011;35483;50.828;3.228;2023-11-21T04:30:10;16.80;;;10.68;;
49578;SDS011;35483;50.828;3.228;2023-11-21T04:32:37;21.13;;;11.43;;
49578;SDS011;35483;50.828;3.228;2023-11-21T04:35:04;18.73;;;11.38;;
49578;SDS011;35483;50.828;3.228;2023-11-21T04:37:31;17.67;;;11.68;;
49578;SDS011;35483;50.828;3.228;2023-11-21T04:39:57;17.35;;;11.30;;
49578;SDS011;35483;50.828;3.228;2023-11-21T04:42:24;16.70;;;11.05;;
49578;SDS011;35483;50.828;3.228;2023-11-21T04:44:49;15.32;;;10.63;;
49578;SDS011;35483;50.828;3.228;2023-11-21T04:47:18;18.15;;;10.93;;
49578;SDS011;35483;50.828;3.228;2023-11-21T04:49:45;17.45;;;10.98;;
49578;SDS011;35483;50.828;3.228;2023-11-21T04:54:46;17.00;;;11.60;;
49578;SDS011;35483;50.828;3.228;2023-11-21T04:57:12;15.77;;;11.68;;
49578;SDS011;35483;50.828;3.228;2023-11-21T04:59:37;22.05;;;12.80;;
49578;SDS011;35483;50.828;3.228;2023-11-21T05:02:04;19.10;;;12.48;;
49578;SDS011;35483;50.828;3.228;2023-11-21T05:04:30;17.63;;;11.82;;
49578;SDS011;35483;50.828;3.228;2023-11-21T05:06:57;17.23;;;11.77;;
49578;SDS011;35483;50.828;3.228;2023-11-21T05:09:25;18.83;;;12.45;;
49578;SDS011;35483;50.828;3.228;2023-11-21T05:11:55;16.45;;;12.45;;
49578;SDS011;35483;50.828;3.228;2023-11-21T05:14:21;19.63;;;12.18;;
49578;SDS011;35483;50.828;3.228;2023-11-21T05:16:47;18.67;;;12.55;;
49578;SDS011;35483;50.828;3.228;2023-11-21T05:19:14;20.38;;;12.10;;
49578;SDS011;35483;50.828;3.228;2023-11-21T05:21:39;17.05;;;11.20;;
49578;SDS011;35483;50.828;3.228;2023-11-21T05:24:07;19.15;;;13.35;;
49578;SDS011;35483;50.828;3.228;2023-11-21T05:26:36;14.25;;;10.75;;
49578;SDS011;35483;50.828;3.228;2023-11-21T05:29:03;18.20;;;12.35;;
49578;SDS011;35483;50.828;3.228;2023-11-21T05:31:29;16.10;;;10.52;;
49578;SDS011;35483;50.828;3.228;2023-11-21T05:36:24;18.75;;;12.93;;
49578;SDS011;35483;50.828;3.228;2023-11-21T05:41:18;12.32;;;9.60;;
49578;SDS011;35483;50.828;3.228;2023-11-21T05:43:44;14.20;;;10.13;;
49578;SDS011;35483;50.828;3.228;2023-11-21T05:46:09;11.85;;;9.20;;
49578;SDS011;35483;50.828;3.228;2023-11-21T05:48:36;11.70;;;8.93;;
49578;SDS011;35483;50.828;3.228;2023-11-21T05:51:04;11.52;;;7.80;;
49578;SDS011;35483;50.828;3.228;2023-11-21T05:53:31;10.30;;;7.80;;
49578;SDS011;35483;50.828;3.228;2023-11-21T05:55:57;12.13;;;8.57;;
49578;SDS011;35483;50.828;3.228;2023-11-21T05:58:24;10.15;;;7.55;;
49578;SDS011;35483;50.828;3.228;2023-11-21T06:00:50;10.40;;;7.40;;
49578;SDS011;35483;50.828;3.228;2023-11-21T06:03:16;9.10;;;7.15;;
49578;SDS011;35483;50.828;3.228;2023-11-21T06:05:43;12.23;;;7.55;;
49578;SDS011;35483;50.828;3.228;2023-11-21T06:08:09;10.85;;;7.55;;
49578;SDS011;35483;50.828;3.228;2023-11-21T06:10:36;11.15;;;7.28;;
49578;SDS011;35483;50.828;3.228;2023-11-21T06:13:02;11.23;;;7.40;;
49578;SDS011;35483;50.828;3.228;2023-11-21T06:15:29;10.60;;;7.90;;
49578;SDS011;35483;50.828;3.228;2023-11-21T06:17:54;13.25;;;7.50;;
49578;SDS011;35483;50.828;3.228;2023-11-21T06:20:22;10.15;;;7.32;;
49578;SDS011;35483;50.828;3.228;2023-11-21T06:22:50;16.63;;;7.78;;
49578;SDS011;35483;50.828;3.228;2023-11-21T06:25:17;11.98;;;7.85;;
49578;SDS011;35483;50.828;3.228;2023-11-21T06:27:43;14.15;;;8.80;;
49578;SDS011;35483;50.828;3.228;2023-11-21T06:30:11;13.68;;;8.35;;
49578;SDS011;35483;50.828;3.228;2023-11-21T06:32:39;14.75;;;9.30;;
49578;SDS011;35483;50.828;3.228;2023-11-21T06:35:07;12.82;;;8.65;;
49578;SDS011;35483;50.828;3.228;2023-11-21T06:37:39;12.10;;;8.30;;
49578;SDS011;35483;50.828;3.228;2023-11-21T06:40:05;13.18;;;8.80;;
49578;SDS011;35483;50.828;3.228;2023-11-21T06:42:33;14.02;;;9.15;;
49578;SDS011;35483;50.828;3.228;2023-11-21T06:44:58;12.25;;;8.90;;
49578;SDS011;35483;50.828;3.228;2023-11-21T06:47:28;11.73;;;8.15;;
49578;SDS011;35483;50.828;3.228;2023-11-21T06:49:55;14.65;;;9.45;;
49578;SDS011;35483;50.828;3.228;2023-11-21T06:52:22;17.27;;;10.38;;
49578;SDS011;35483;50.828;3.228;2023-11-21T06:54:50;14.77;;;10.15;;
49578;SDS011;35483;50.828;3.228;2023-11-21T06:57:17;16.20;;;10.13;;
49578;SDS011;35483;50.828;3.228;2023-11-21T06:59:43;24.48;;;10.88;;
49578;SDS011;35483;50.828;3.228;2023-11-21T07:02:09;21.13;;;11.57;;
49578;SDS011;35483;50.828;3.228;2023-11-21T07:04:37;36.50;;;13.63;;
49578;SDS011;35483;50.828;3.228;2023-11-21T07:07:03;21.98;;;12.80;;
49578;SDS011;35483;50.828;3.228;2023-11-21T07:09:30;22.88;;;12.27;;
49578;SDS011;35483;50.828;3.228;2023-11-21T07:11:56;17.67;;;11.95;;
49578;SDS011;35483;50.828;3.228;2023-11-21T07:14:23;21.52;;;12.35;;
49578;SDS011;35483;50.828;3.228;2023-11-21T07:16:49;19.98;;;11.63;;
49578;SDS011;35483;50.828;3.228;2023-11-21T07:19:18;19.02;;;12.73;;
49578;SDS011;35483;50.828;3.228;2023-11-21T07:21:45;20.30;;;12.75;;
49578;SDS011;35483;50.828;3.228;2023-11-21T07:24:11;25.45;;;14.93;;
49578;SDS011;35483;50.828;3.228;2023-11-21T07:26:38;23.92;;;15.80;;
49578;SDS011;35483;50.828;3.228;2023-11-21T07:29:06;18.35;;;11.95;;
49578;SDS011;35483;50.828;3.228;2023-11-21T07:31:31;24.45;;;14.48;;
49578;SDS011;35483;50.828;3.228;2023-11-21T07:34:01;23.60;;;13.57;;
49578;SDS011;35483;50.828;3.228;2023-11-21T07:36:30;21.33;;;13.13;;
49578;SDS011;35483;50.828;3.228;2023-11-21T07:38:57;23.10;;;14.05;;
49578;SDS011;35483;50.828;3.228;2023-11-21T07:41:23;21.55;;;13.43;;
49578;SDS011;35483;50.828;3.228;2023-11-21T07:43:49;22.77;;;13.93;;
49578;SDS011;35483;50.828;3.228;2023-11-21T07:46:14;23.13;;;12.57;;
49578;SDS011;35483;50.828;3.228;2023-11-21T07:48:43;20.90;;;12.40;;
49578;SDS011;35483;50.828;3.228;2023-11-21T07:53:42;19.70;;;12.13;;
49578;SDS011;35483;50.828;3.228;2023-11-21T07:56:08;20.95;;;12.50;;
49578;SDS011;35483;50.828;3.228;2023-11-21T07:58:35;16.98;;;10.43;;
49578;SDS011;35483;50.828;3.228;2023-11-21T08:01:02;19.10;;;11.27;;
49578;SDS011;35483;50.828;3.228;2023-11-21T08:03:30;17.40;;;10.27;;
49578;SDS011;35483;50.828;3.228;2023-11-21T08:06:00;12.93;;;8.68;;
49578;SDS011;35483;50.828;3.228;2023-11-21T08:08:28;11.52;;;8.45;;
49578;SDS011;35483;50.828;3.228;2023-11-21T08:10:54;14.65;;;9.40;;
49578;SDS011;35483;50.828;3.228;2023-11-21T08:13:28;13.00;;;7.55;;
49578;SDS011;35483;50.828;3.228;2023-11-21T08:15:57;10.95;;;7.45;;
49578;SDS011;35483;50.828;3.228;2023-11-21T08:18:36;12.10;;;8.88;;
49578;SDS011;35483;50.828;3.228;2023-11-21T08:21:01;10.70;;;7.22;;
49578;SDS011;35483;50.828;3.228;2023-11-21T08:23:28;14.68;;;8.25;;
49578;SDS011;35483;50.828;3.228;2023-11-21T08:25:57;11.88;;;7.57;;
49578;SDS011;35483;50.828;3.228;2023-11-21T08:28:24;11.30;;;7.20;;
49578;SDS011;35483;50.828;3.228;2023-11-21T08:30:52;11.15;;;6.78;;
49578;SDS011;35483;50.828;3.228;2023-11-21T08:33:21;11.90;;;7.65;;
49578;SDS011;35483;50.828;3.228;2023-11-21T08:35:47;8.68;;;6.55;;
49578;SDS011;35483;50.828;3.228;2023-11-21T08:38:13;8.88;;;6.18;;
49578;SDS011;35483;50.828;3.228;2023-11-21T08:43:09;7.82;;;5.68;;
49578;SDS011;35483;50.828;3.228;2023-11-21T08:45:38;9.65;;;6.20;;
49578;SDS011;35483;50.828;3.228;2023-11-21T08:48:03;7.15;;;5.47;;
49578;SDS011;35483;50.828;3.228;2023-11-21T08:50:33;8.70;;;5.15;;
49578;SDS011;35483;50.828;3.228;2023-11-21T08:53:02;7.10;;;4.88;;
49578;SDS011;35483;50.828;3.228;2023-11-21T08:55:29;9.55;;;5.60;;
49578;SDS011;35483;50.828;3.228;2023-11-21T08:57:55;7.18;;;6.18;;
49578;SDS011;35483;50.828;3.228;2023-11-21T09:00:25;8.60;;;5.30;;
49578;SDS011;35483;50.828;3.228;2023-11-21T09:02:50;6.35;;;4.50;;
49578;SDS011;35483;50.828;3.228;2023-11-21T09:05:16;5.72;;;3.95;;
49578;SDS011;35483;50.828;3.228;2023-11-21T09:07:44;4.30;;;3.22;;
49578;SDS011;35483;50.828;3.228;2023-11-21T09:10:11;4.03;;;3.25;;
49578;SDS011;35483;50.828;3.228;2023-11-21T09:12:38;3.45;;;2.90;;
49578;SDS011;35483;50.828;3.228;2023-11-21T09:15:06;3.85;;;3.03;;
49578;SDS011;35483;50.828;3.228;2023-11-21T09:17:34;5.18;;;3.25;;
49578;SDS011;35483;50.828;3.228;2023-11-21T09:20:00;4.18;;;3.35;;
49578;SDS011;35483;50.828;3.228;2023-11-21T09:22:30;4.63;;;3.20;;
49578;SDS011;35483;50.828;3.228;2023-11-21T09:24:57;9.02;;;5.25;;
49578;SDS011;35483;50.828;3.228;2023-11-21T09:27:24;5.15;;;3.85;;
49578;SDS011;35483;50.828;3.228;2023-11-21T09:29:51;5.25;;;4.50;;
49578;SDS011;35483;50.828;3.228;2023-11-21T09:34:48;6.28;;;4.20;;
49578;SDS011;35483;50.828;3.228;2023-11-21T09:37:16;4.53;;;3.67;;
49578;SDS011;35483;50.828;3.228;2023-11-21T09:39:43;6.53;;;3.58;;
49578;SDS011;35483;50.828;3.228;2023-11-21T09:42:15;4.63;;;3.63;;
49578;SDS011;35483;50.828;3.228;2023-11-21T09:47:37;5.57;;;3.45;;
49578;SDS011;35483;50.828;3.228;2023-11-21T09:50:05;5.30;;;3.28;;
49578;SDS011;35483;50.828;3.228;2023-11-21T09:52:45;4.75;;;3.20;;
49578;SDS011;35483;50.828;3.228;2023-11-21T09:55:25;4.65;;;3.65;;
49578;SDS011;35483;50.828;3.228;2023-11-21T09:57:57;6.28;;;3.53;;
49578;SDS011;35483;50.828;3.228;2023-11-21T10:00:26;6.38;;;4.25;;
49578;SDS011;35483;50.828;3.228;2023-11-21T10:02:55;5.03;;;3.30;;
49578;SDS011;35483;50.828;3.228;2023-11-21T10:05:23;7.07;;;4.63;;
49578;SDS011;35483;50.828;3.228;2023-11-21T10:07:50;5.53;;;3.65;;
49578;SDS011;35483;50.828;3.228;2023-11-21T10:10:20;5.88;;;3.97;;
49578;SDS011;35483;50.828;3.228;2023-11-21T10:12:49;6.13;;;4.28;;
49578;SDS011;35483;50.828;3.228;2023-11-21T10:15:18;6.55;;;3.65;;
49578;SDS011;35483;50.828;3.228;2023-11-21T10:17:49;6.72;;;2.78;;
49578;SDS011;35483;50.828;3.228;2023-11-21T10:20:19;4.55;;;2.42;;
49578;SDS011;35483;50.828;3.228;2023-11-21T10:25:14;7.45;;;3.30;;
49578;SDS011;35483;50.828;3.228;2023-11-21T10:27:41;5.68;;;3.10;;
49578;SDS011;35483;50.828;3.228;2023-11-21T10:30:09;6.45;;;3.08;;
49578;SDS011;35483;50.828;3.228;2023-11-21T10:32:39;6.43;;;2.97;;
49578;SDS011;35483;50.828;3.228;2023-11-21T10:35:06;5.03;;;3.03;;
49578;SDS011;35483;50.828;3.228;2023-11-21T10:37:40;3.10;;;2.70;;
49578;SDS011;35483;50.828;3.228;2023-11-21T10:40:06;2.78;;;2.10;;
49578;SDS011;35483;50.828;3.228;2023-11-21T10:42:34;3.13;;;2.00;;
49578;SDS011;35483;50.828;3.228;2023-11-21T10:45:03;4.90;;;2.60;;
49578;SDS011;35483;50.828;3.228;2023-11-21T10:50:01;4.40;;;2.78;;
49578;SDS011;35483;50.828;3.228;2023-11-21T10:52:27;6.30;;;2.92;;
49578;SDS011;35483;50.828;3.228;2023-11-21T10:54:55;8.10;;;2.75;;
49578;SDS011;35483;50.828;3.228;2023-11-21T10:57:22;6.68;;;3.45;;
49578;SDS011;35483;50.828;3.228;2023-11-21T10:59:49;4.95;;;2.65;;
49578;SDS011;35483;50.828;3.228;2023-11-21T11:02:23;5.90;;;3.00;;
49578;SDS011;35483;50.828;3.228;2023-11-21T11:04:54;4.15;;;2.70;;
49578;SDS011;35483;50.828;3.228;2023-11-21T11:07:26;5.20;;;2.55;;
49578;SDS011;35483;50.828;3.228;2023-11-21T11:09:58;4.30;;;2.45;;
49578;SDS011;35483;50.828;3.228;2023-11-21T11:12:26;3.63;;;2.83;;
49578;SDS011;35483;50.828;3.228;2023-11-21T11:14:54;5.43;;;2.80;;
49578;SDS011;35483;50.828;3.228;2023-11-21T11:17:21;5.70;;;2.80;;
49578;SDS011;35483;50.828;3.228;2023-11-21T11:19:47;4.63;;;2.80;;
49578;SDS011;35483;50.828;3.228;2023-11-21T11:28:46;8.50;;;4.10;;
49578;SDS011;35483;50.828;3.228;2023-11-21T11:42:13;6.25;;;4.20;;
49578;SDS011;35483;50.828;3.228;2023-11-21T11:47:16;10.07;;;4.47;;
49578;SDS011;35483;50.828;3.228;2023-11-21T11:52:46;6.45;;;3.45;;
49578;SDS011;35483;50.828;3.228;2023-11-21T11:55:14;6.70;;;2.88;;
49578;SDS011;35483;50.828;3.228;2023-11-21T12:03:02;6.43;;;3.22;;
49578;SDS011;35483;50.828;3.228;2023-11-21T12:05:30;6.30;;;2.78;;
49578;SDS011;35483;50.828;3.228;2023-11-21T12:08:10;4.85;;;2.75;;
49578;SDS011;35483;50.828;3.228;2023-11-21T12:10:37;5.55;;;3.17;;
49578;SDS011;35483;50.828;3.228;2023-11-21T12:13:07;6.20;;;3.00;;
49578;SDS011;35483;50.828;3.228;2023-11-21T12:15:38;5.80;;;2.92;;
49578;SDS011;35483;50.828;3.228;2023-11-21T12:18:05;4.18;;;2.50;;
49578;SDS011;35483;50.828;3.228;2023-11-21T12:20:33;5.90;;;2.63;;
49578;SDS011;35483;50.828;3.228;2023-11-21T12:23:05;4.65;;;2.47;;
49578;SDS011;35483;50.828;3.228;2023-11-21T12:25:31;5.30;;;2.72;;
49578;SDS011;35483;50.828;3.228;2023-11-21T12:27:58;4.97;;;2.45;;
49578;SDS011;35483;50.828;3.228;2023-11-21T12:30:25;4.32;;;2.40;;
49578;SDS011;35483;50.828;3.228;2023-11-21T12:35:30;7.13;;;2.72;;
49578;SDS011;35483;50.828;3.228;2023-11-21T12:38:02;4.32;;;2.72;;
49578;SDS011;35483;50.828;3.228;2023-11-21T12:40:34;5.22;;;2.40;;
49578;SDS011;35483;50.828;3.228;2023-11-21T12:43:02;4.15;;;2.40;;
49578;SDS011;35483;50.828;3.228;2023-11-21T12:45:29;5.68;;;2.35;;
49578;SDS011;35483;50.828;3.228;2023-11-21T12:50:25;7.00;;;2.00;;
49578;SDS011;35483;50.828;3.228;2023-11-21T12:53:10;2.65;;;1.50;;
49578;SDS011;35483;50.828;3.228;2023-11-21T12:55:37;3.08;;;1.70;;
49578;SDS011;35483;50.828;3.228;2023-11-21T12:58:05;4.47;;;1.35;;
49578;SDS011;35483;50.828;3.228;2023-11-21T13:03:12;4.38;;;1.63;;
49578;SDS011;35483;50.828;3.228;2023-11-21T13:05:43;3.22;;;2.35;;
49578;SDS011;35483;50.828;3.228;2023-11-21T13:08:12;4.28;;;2.60;;
49578;SDS011;35483;50.828;3.228;2023-11-21T13:10:40;6.35;;;2.45;;
49578;SDS011;35483;50.828;3.228;2023-11-21T13:13:10;3.70;;;1.60;;
49578;SDS011;35483;50.828;3.228;2023-11-21T13:15:50;2.58;;;1.30;;
49578;SDS011;35483;50.828;3.228;2023-11-21T13:18:18;2.67;;;1.55;;
49578;SDS011;35483;50.828;3.228;2023-11-21T13:20:47;3.58;;;1.48;;
49578;SDS011;35483;50.828;3.228;2023-11-21T13:23:14;3.83;;;1.67;;
49578;SDS011;35483;50.828;3.228;2023-11-21T13:25:42;4.03;;;1.92;;
49578;SDS011;35483;50.828;3.228;2023-11-21T13:28:10;4.38;;;1.38;;
49578;SDS011;35483;50.828;3.228;2023-11-21T13:30:37;2.88;;;1.65;;
49578;SDS011;35483;50.828;3.228;2023-11-21T13:33:06;1.73;;;1.35;;
49578;SDS011;35483;50.828;3.228;2023-11-21T13:35:36;3.58;;;1.50;;
49578;SDS011;35483;50.828;3.228;2023-11-21T13:38:07;5.95;;;1.55;;
49578;SDS011;35483;50.828;3.228;2023-11-21T13:40:36;2.55;;;1.38;;
49578;SDS011;35483;50.828;3.228;2023-11-21T13:43:12;2.20;;;1.20;;
49578;SDS011;35483;50.828;3.228;2023-11-21T13:45:39;4.07;;;1.60;;
49578;SDS011;35483;50.828;3.228;2023-11-21T13:50:37;4.32;;;1.88;;
49578;SDS011;35483;50.828;3.228;2023-11-21T13:53:05;7.75;;;3.80;;
49578;SDS011;35483;50.828;3.228;2023-11-21T13:55:53;4.00;;;2.40;;
49578;SDS011;35483;50.828;3.228;2023-11-21T13:58:23;5.53;;;2.70;;
49578;SDS011;35483;50.828;3.228;2023-11-21T14:01:08;2.70;;;1.90;;
49578;SDS011;35483;50.828;3.228;2023-11-21T14:03:50;5.70;;;1.90;;
49578;SDS011;35483;50.828;3.228;2023-11-21T14:06:31;3.80;;;1.15;;
49578;SDS011;35483;50.828;3.228;2023-11-21T14:09:06;4.07;;;1.90;;
49578;SDS011;35483;50.828;3.228;2023-11-21T14:11:32;2.67;;;1.70;;
49578;SDS011;35483;50.828;3.228;2023-11-21T14:14:05;5.50;;;2.40;;
49578;SDS011;35483;50.828;3.228;2023-11-21T14:16:33;3.15;;;1.75;;
49578;SDS011;35483;50.828;3.228;2023-11-21T14:18:59;6.72;;;3.38;;
49578;SDS011;35483;50.828;3.228;2023-11-21T14:21:34;4.07;;;2.00;;
49578;SDS011;35483;50.828;3.228;2023-11-21T14:24:00;7.55;;;3.20;;
49578;SDS011;35483;50.828;3.228;2023-11-21T14:26:27;4.85;;;2.78;;
49578;SDS011;35483;50.828;3.228;2023-11-21T14:28:54;6.35;;;3.10;;
49578;SDS011;35483;50.828;3.228;2023-11-21T14:33:50;4.80;;;2.38;;
49578;SDS011;35483;50.828;3.228;2023-11-21T14:36:18;5.18;;;2.80;;
49578;SDS011;35483;50.828;3.228;2023-11-21T14:38:44;4.85;;;2.38;;
49578;SDS011;35483;50.828;3.228;2023-11-21T14:41:10;7.78;;;3.70;;
49578;SDS011;35483;50.828;3.228;2023-11-21T14:43:36;7.32;;;3.38;;
49578;SDS011;35483;50.828;3.228;2023-11-21T14:46:06;7.60;;;3.33;;
49578;SDS011;35483;50.828;3.228;2023-11-21T14:51:13;6.00;;;3.15;;
49578;SDS011;35483;50.828;3.228;2023-11-21T14:54:18;6.60;;;3.47;;
49578;SDS011;35483;50.828;3.228;2023-11-21T14:56:55;4.28;;;2.72;;
49578;SDS011;35483;50.828;3.228;2023-11-21T14:59:20;4.65;;;2.50;;
49578;SDS011;35483;50.828;3.228;2023-11-21T15:01:49;4.60;;;2.60;;
49578;SDS011;35483;50.828;3.228;2023-11-21T15:04:22;4.30;;;2.50;;
49578;SDS011;35483;50.828;3.228;2023-11-21T15:07:02;4.60;;;2.15;;
49578;SDS011;35483;50.828;3.228;2023-11-21T15:09:29;4.53;;;2.38;;
49578;SDS011;35483;50.828;3.228;2023-11-21T15:12:01;5.22;;;1.80;;
49578;SDS011;35483;50.828;3.228;2023-11-21T15:14:49;6.53;;;3.47;;
49578;SDS011;35483;50.828;3.228;2023-11-21T15:17:20;7.95;;;4.30;;
49578;SDS011;35483;50.828;3.228;2023-11-21T15:22:23;5.05;;;3.03;;
49578;SDS011;35483;50.828;3.228;2023-11-21T15:24:52;20.65;;;13.05;;
49578;SDS011;35483;50.828;3.228;2023-11-21T15:27:20;11.00;;;6.05;;
49578;SDS011;35483;50.828;3.228;2023-11-21T15:29:47;5.93;;;4.10;;
49578;SDS011;35483;50.828;3.228;2023-11-21T15:32:16;6.55;;;4.05;;
49578;SDS011;35483;50.828;3.228;2023-11-21T15:37:12;9.40;;;4.93;;
49578;SDS011;35483;50.828;3.228;2023-11-21T15:39:39;7.47;;;4.25;;
49578;SDS011;35483;50.828;3.228;2023-11-21T15:42:05;5.82;;;3.47;;
49578;SDS011;35483;50.828;3.228;2023-11-21T15:44:33;4.45;;;2.95;;
49578;SDS011;35483;50.828;3.228;2023-11-21T15:46:59;4.60;;;2.80;;
49578;SDS011;35483;50.828;3.228;2023-11-21T15:49:26;4.22;;;2.90;;
49578;SDS011;35483;50.828;3.228;2023-11-21T15:51:59;8.20;;;3.97;;
49578;SDS011;35483;50.828;3.228;2023-11-21T15:54:26;7.68;;;4.82;;
49578;SDS011;35483;50.828;3.228;2023-11-21T15:59:22;7.53;;;4.70;;
49578;SDS011;35483;50.828;3.228;2023-11-21T16:01:53;7.53;;;4.57;;
49578;SDS011;35483;50.828;3.228;2023-11-21T16:04:18;6.05;;;3.83;;
49578;SDS011;35483;50.828;3.228;2023-11-21T16:06:49;8.30;;;4.68;;
49578;SDS011;35483;50.828;3.228;2023-11-21T16:09:15;5.30;;;4.05;;
49578;SDS011;35483;50.828;3.228;2023-11-21T16:12:02;5.88;;;3.88;;
49578;SDS011;35483;50.828;3.228;2023-11-21T16:14:34;5.80;;;4.20;;
49578;SDS011;35483;50.828;3.228;2023-11-21T16:17:03;7.93;;;4.50;;
49578;SDS011;35483;50.828;3.228;2023-11-21T16:19:29;7.03;;;4.75;;